sensor_id;sensor_type;location;lat;lon;timestamp;pressure;altitude;pressure_sealevel;temperature;humidity
11413;BME280;5762;43.256;26.960;2023-04-19T00:02:02;100384.08;;;11.47;100.00
11413;BME280;5762;43.256;26.960;2023-04-19T00:04:30;100376.05;;;11.39;100.00
11413;BME280;5762;43.256;26.960;2023-04-19T00:06:59;100375.01;;;11.35;100.00
11413;BME280;5762;43.256;26.960;2023-04-19T00:09:28;100367.11;;;11.39;100.00
11413;BME280;5762;43.256;26.960;2023-04-19T00:11:57;100365.05;;;11.52;100.00
11413;BME280;5762;43.256;26.960;2023-04-19T00:14:27;100357.41;;;11.57;100.00
11413;BME280;5762;43.256;26.960;2023-04-19T00:16:56;100348.89;;;11.66;100.00
11413;BME280;5762;43.256;26.960;2023-04-19T00:19:24;100333.27;;;11.58;100.00
11413;BME280;5762;43.256;26.960;2023-04-19T00:21:53;100326.55;;;11.53;100.00
11413;BME280;5762;43.256;26.960;2023-04-19T00:24:22;100317.58;;;11.55;100.00
11413;BME280;5762;43.256;26.960;2023-04-19T00:26:51;100306.11;;;11.41;100.00
11413;BME280;5762;43.256;26.960;2023-04-19T00:29:20;100301.03;;;11.35;100.00
11413;BME280;5762;43.256;26.960;2023-04-19T00:31:49;100296.19;;;11.32;100.00
11413;BME280;5762;43.256;26.960;2023-04-19T00:34:18;100293.25;;;11.28;100.00
11413;BME280;5762;43.256;26.960;2023-04-19T00:36:47;100295.09;;;11.33;100.00
11413;BME280;5762;43.256;26.960;2023-04-19T00:39:16;100291.92;;;11.26;100.00
11413;BME280;5762;43.256;26.960;2023-04-19T00:41:45;100291.60;;;11.30;100.00
11413;BME280;5762;43.256;26.960;2023-04-19T00:44:14;100291.34;;;11.29;100.00
11413;BME280;5762;43.256;26.960;2023-04-19T00:46:42;100284.65;;;11.21;100.00
11413;BME280;5762;43.256;26.960;2023-04-19T00:49:11;100282.31;;;11.12;100.00
11413;BME280;5762;43.256;26.960;2023-04-19T00:51:40;100280.44;;;11.10;100.00
11413;BME280;5762;43.256;26.960;2023-04-19T00:54:08;100281.84;;;11.07;100.00
11413;BME280;5762;43.256;26.960;2023-04-19T00:56:37;100281.30;;;11.08;100.00
11413;BME280;5762;43.256;26.960;2023-04-19T00:59:06;100281.80;;;11.10;100.00
11413;BME280;5762;43.256;26.960;2023-04-19T01:01:34;100280.17;;;11.09;100.00
11413;BME280;5762;43.256;26.960;2023-04-19T01:04:06;100270.55;;;11.00;100.00
11413;BME280;5762;43.256;26.960;2023-04-19T01:06:34;100281.61;;;11.04;100.00
11413;BME280;5762;43.256;26.960;2023-04-19T01:09:03;100281.41;;;10.98;100.00
11413;BME280;5762;43.256;26.960;2023-04-19T01:11:32;100281.80;;;10.86;100.00
11413;BME280;5762;43.256;26.960;2023-04-19T01:14:01;100283.95;;;10.87;100.00
11413;BME280;5762;43.256;26.960;2023-04-19T01:16:30;100288.82;;;10.87;100.00
11413;BME280;5762;43.256;26.960;2023-04-19T01:18:59;100290.41;;;10.91;100.00
11413;BME280;5762;43.256;26.960;2023-04-19T01:21:28;100286.89;;;10.90;100.00
11413;BME280;5762;43.256;26.960;2023-04-19T01:23:57;100287.42;;;10.92;100.00
11413;BME280;5762;43.256;26.960;2023-04-19T01:26:25;100279.03;;;10.91;100.00
11413;BME280;5762;43.256;26.960;2023-04-19T01:28:54;100285.09;;;10.81;100.00
11413;BME280;5762;43.256;26.960;2023-04-19T01:31:23;100286.19;;;10.80;100.00
11413;BME280;5762;43.256;26.960;2023-04-19T01:33:52;100281.55;;;10.83;100.00
11413;BME280;5762;43.256;26.960;2023-04-19T01:36:20;100278.84;;;10.83;100.00
11413;BME280;5762;43.256;26.960;2023-04-19T01:38:49;100273.48;;;10.78;100.00
11413;BME280;5762;43.256;26.960;2023-04-19T01:41:18;100271.66;;;10.73;100.00
11413;BME280;5762;43.256;26.960;2023-04-19T01:43:47;100271.34;;;10.74;100.00
11413;BME280;5762;43.256;26.960;2023-04-19T01:46:16;100268.73;;;10.67;100.00
11413;BME280;5762;43.256;26.960;2023-04-19T01:48:45;100266.27;;;10.70;100.00
11413;BME280;5762;43.256;26.960;2023-04-19T01:51:14;100262.48;;;10.69;100.00
11413;BME280;5762;43.256;26.960;2023-04-19T01:53:43;100264.08;;;10.72;100.00
11413;BME280;5762;43.256;26.960;2023-04-19T01:56:11;100256.09;;;10.57;100.00
11413;BME280;5762;43.256;26.960;2023-04-19T01:58:40;100259.89;;;10.56;100.00
11413;BME280;5762;43.256;26.960;2023-04-19T02:01:08;100257.69;;;10.61;100.00
11413;BME280;5762;43.256;26.960;2023-04-19T02:03:38;100251.20;;;10.59;100.00
11413;BME280;5762;43.256;26.960;2023-04-19T02:06:10;100248.98;;;10.66;100.00
11413;BME280;5762;43.256;26.960;2023-04-19T02:08:40;100242.05;;;10.55;100.00
11413;BME280;5762;43.256;26.960;2023-04-19T02:11:10;100231.06;;;10.41;100.00
11413;BME280;5762;43.256;26.960;2023-04-19T02:13:39;100238.69;;;10.39;100.00
11413;BME280;5762;43.256;26.960;2023-04-19T02:16:08;100233.23;;;10.42;100.00
11413;BME280;5762;43.256;26.960;2023-04-19T02:18:37;100240.10;;;10.32;100.00
11413;BME280;5762;43.256;26.960;2023-04-19T02:21:08;100241.08;;;10.41;100.00
11413;BME280;5762;43.256;26.960;2023-04-19T02:23:37;100237.02;;;10.41;100.00
11413;BME280;5762;43.256;26.960;2023-04-19T02:26:06;100241.28;;;10.50;100.00
11413;BME280;5762;43.256;26.960;2023-04-19T02:28:35;100238.85;;;10.48;100.00
11413;BME280;5762;43.256;26.960;2023-04-19T02:31:04;100232.66;;;10.45;100.00
11413;BME280;5762;43.256;26.960;2023-04-19T02:33:34;100229.95;;;10.45;100.00
11413;BME280;5762;43.256;26.960;2023-04-19T02:36:02;100224.03;;;10.40;100.00
11413;BME280;5762;43.256;26.960;2023-04-19T02:38:30;100221.13;;;10.37;100.00
11413;BME280;5762;43.256;26.960;2023-04-19T02:40:59;100218.96;;;10.36;100.00
11413;BME280;5762;43.256;26.960;2023-04-19T02:43:27;100226.41;;;10.47;100.00
11413;BME280;5762;43.256;26.960;2023-04-19T02:45:56;100231.83;;;10.47;100.00
11413;BME280;5762;43.256;26.960;2023-04-19T02:48:25;100228.41;;;10.39;100.00
11413;BME280;5762;43.256;26.960;2023-04-19T02:50:54;100224.89;;;10.38;100.00
11413;BME280;5762;43.256;26.960;2023-04-19T02:53:23;100227.91;;;10.34;100.00
11413;BME280;5762;43.256;26.960;2023-04-19T02:55:56;100227.70;;;10.26;100.00
11413;BME280;5762;43.256;26.960;2023-04-19T02:58:26;100241.70;;;10.35;100.00
11413;BME280;5762;43.256;26.960;2023-04-19T03:00:51;100236.34;;;10.28;100.00
11413;BME280;5762;43.256;26.960;2023-04-19T03:03:20;100235.00;;;10.28;100.00
11413;BME280;5762;43.256;26.960;2023-04-19T03:05:49;100239.62;;;10.25;100.00
11413;BME280;5762;43.256;26.960;2023-04-19T03:08:17;100250.05;;;10.39;100.00
11413;BME280;5762;43.256;26.960;2023-04-19T03:10:46;100239.62;;;10.25;100.00
11413;BME280;5762;43.256;26.960;2023-04-19T03:13:14;100233.95;;;10.19;100.00
11413;BME280;5762;43.256;26.960;2023-04-19T03:15:43;100240.72;;;10.19;100.00
11413;BME280;5762;43.256;26.960;2023-04-19T03:18:12;100242.06;;;10.24;100.00
11413;BME280;5762;43.256;26.960;2023-04-19T03:20:41;100241.50;;;10.27;100.00
11413;BME280;5762;43.256;26.960;2023-04-19T03:23:12;100232.60;;;10.19;100.00
11413;BME280;5762;43.256;26.960;2023-04-19T03:25:40;100238.61;;;10.11;100.00
11413;BME280;5762;43.256;26.960;2023-04-19T03:28:09;100237.28;;;10.08;100.00
11413;BME280;5762;43.256;26.960;2023-04-19T03:30:38;100239.98;;;10.08;100.00
11413;BME280;5762;43.256;26.960;2023-04-19T03:33:07;100247.55;;;10.08;100.00
11413;BME280;5762;43.256;26.960;2023-04-19T03:35:35;100237.26;;;10.11;100.00
11413;BME280;5762;43.256;26.960;2023-04-19T03:38:04;100247.78;;;10.15;100.00
11413;BME280;5762;43.256;26.960;2023-04-19T03:40:35;100234.59;;;10.05;100.00
11413;BME280;5762;43.256;26.960;2023-04-19T03:43:07;100236.80;;;10.03;100.00
11413;BME280;5762;43.256;26.960;2023-04-19T03:45:32;100244.64;;;10.02;100.00
11413;BME280;5762;43.256;26.960;2023-04-19T03:48:01;100233.73;;;10.13;100.00
11413;BME280;5762;43.256;26.960;2023-04-19T03:50:30;100224.36;;;10.02;100.00
11413;BME280;5762;43.256;26.960;2023-04-19T03:52:59;100228.29;;;10.20;100.00
11413;BME280;5762;43.256;26.960;2023-04-19T03:55:28;100223.44;;;10.15;100.00
11413;BME280;5762;43.256;26.960;2023-04-19T03:57:57;100222.12;;;10.09;100.00
11413;BME280;5762;43.256;26.960;2023-04-19T04:00:26;100229.98;;;10.06;100.00
11413;BME280;5762;43.256;26.960;2023-04-19T04:02:55;100231.25;;;10.19;100.00
11413;BME280;5762;43.256;26.960;2023-04-19T04:05:23;100231.52;;;10.22;100.00
11413;BME280;5762;43.256;26.960;2023-04-19T04:07:53;100234.77;;;10.22;100.00
11413;BME280;5762;43.256;26.960;2023-04-19T04:10:22;100231.24;;;10.24;100.00
11413;BME280;5762;43.256;26.960;2023-04-19T04:12:51;100223.13;;;10.24;100.00
11413;BME280;5762;43.256;26.960;2023-04-19T04:15:20;100220.97;;;10.23;100.00
11413;BME280;5762;43.256;26.960;2023-04-19T04:17:49;100221.53;;;10.20;100.00
11413;BME280;5762;43.256;26.960;2023-04-19T04:20:17;100215.58;;;10.21;100.00
11413;BME280;5762;43.256;26.960;2023-04-19T04:22:47;100213.66;;;10.24;100.00
11413;BME280;5762;43.256;26.960;2023-04-19T04:25:16;100212.36;;;10.14;100.00
11413;BME280;5762;43.256;26.960;2023-04-19T04:27:45;100222.59;;;10.22;100.00
11413;BME280;5762;43.256;26.960;2023-04-19T04:30:14;100221.20;;;10.27;100.00
11413;BME280;5762;43.256;26.960;2023-04-19T04:32:42;100219.64;;;10.16;100.00
11413;BME280;5762;43.256;26.960;2023-04-19T04:35:14;100214.78;;;10.15;100.00
11413;BME280;5762;43.256;26.960;2023-04-19T04:37:43;100223.70;;;10.16;100.00
11413;BME280;5762;43.256;26.960;2023-04-19T04:40:12;100230.17;;;10.22;100.00
11413;BME280;5762;43.256;26.960;2023-04-19T04:42:41;100235.30;;;10.24;100.00
11413;BME280;5762;43.256;26.960;2023-04-19T04:45:10;100236.61;;;10.29;100.00
11413;BME280;5762;43.256;26.960;2023-04-19T04:47:38;100241.98;;;10.34;100.00
11413;BME280;5762;43.256;26.960;2023-04-19T04:50:07;100236.61;;;10.29;100.00
11413;BME280;5762;43.256;26.960;2023-04-19T04:52:36;100236.39;;;10.23;100.00
11413;BME280;5762;43.256;26.960;2023-04-19T04:55:05;100232.88;;;10.17;100.00
11413;BME280;5762;43.256;26.960;2023-04-19T04:57:33;100235.56;;;10.25;100.00
11413;BME280;5762;43.256;26.960;2023-04-19T05:00:03;100235.28;;;10.26;100.00
11413;BME280;5762;43.256;26.960;2023-04-19T05:02:32;100230.67;;;10.27;100.00
11413;BME280;5762;43.256;26.960;2023-04-19T05:05:01;100223.61;;;10.31;100.00
11413;BME280;5762;43.256;26.960;2023-04-19T05:07:29;100230.13;;;10.27;100.00
11413;BME280;5762;43.256;26.960;2023-04-19T05:09:58;100225.79;;;10.29;100.00
11413;BME280;5762;43.256;26.960;2023-04-19T05:12:27;100219.91;;;10.19;100.00
11413;BME280;5762;43.256;26.960;2023-04-19T05:14:56;100222.03;;;10.25;100.00
11413;BME280;5762;43.256;26.960;2023-04-19T05:17:25;100219.34;;;10.22;100.00
11413;BME280;5762;43.256;26.960;2023-04-19T05:19:54;100211.53;;;10.16;100.00
11413;BME280;5762;43.256;26.960;2023-04-19T05:22:23;100219.55;;;10.31;100.00
11413;BME280;5762;43.256;26.960;2023-04-19T05:24:52;100216.92;;;10.21;100.00
11413;BME280;5762;43.256;26.960;2023-04-19T05:27:21;100225.28;;;10.24;100.00
11413;BME280;5762;43.256;26.960;2023-04-19T05:29:49;100226.59;;;10.29;100.00
11413;BME280;5762;43.256;26.960;2023-04-19T05:32:19;100226.09;;;10.25;100.00
11413;BME280;5762;43.256;26.960;2023-04-19T05:34:47;100222.62;;;10.19;100.00
11413;BME280;5762;43.256;26.960;2023-04-19T05:37:16;100228.03;;;10.19;100.00
11413;BME280;5762;43.256;26.960;2023-04-19T05:39:44;100226.38;;;10.18;100.00
11413;BME280;5762;43.256;26.960;2023-04-19T05:42:13;100229.89;;;10.19;100.00
11413;BME280;5762;43.256;26.960;2023-04-19T05:44:41;100223.98;;;10.14;100.00
11413;BME280;5762;43.256;26.960;2023-04-19T05:47:10;100233.16;;;10.16;100.00
11413;BME280;5762;43.256;26.960;2023-04-19T05:49:39;100234.52;;;10.21;100.00
11413;BME280;5762;43.256;26.960;2023-04-19T05:52:07;100241.27;;;10.21;100.00
11413;BME280;5762;43.256;26.960;2023-04-19T05:54:37;100246.97;;;10.19;100.00
11413;BME280;5762;43.256;26.960;2023-04-19T05:57:05;100245.09;;;10.12;100.00
11413;BME280;5762;43.256;26.960;2023-04-19T05:59:35;100257.22;;;10.17;100.00
11413;BME280;5762;43.256;26.960;2023-04-19T06:02:03;100258.05;;;10.15;100.00
11413;BME280;5762;43.256;26.960;2023-04-19T06:04:32;100261.35;;;10.07;100.00
11413;BME280;5762;43.256;26.960;2023-04-19T06:07:00;100266.71;;;10.15;100.00
11413;BME280;5762;43.256;26.960;2023-04-19T06:09:29;100268.30;;;10.18;100.00
11413;BME280;5762;43.256;26.960;2023-04-19T06:11:58;100259.45;;;10.07;100.00
11413;BME280;5762;43.256;26.960;2023-04-19T06:14:27;100265.60;;;10.18;100.00
11413;BME280;5762;43.256;26.960;2023-04-19T06:16:57;100257.74;;;10.24;100.00
11413;BME280;5762;43.256;26.960;2023-04-19T06:19:25;100268.91;;;10.47;100.00
11413;BME280;5762;43.256;26.960;2023-04-19T06:21:54;100250.55;;;10.41;100.00
11413;BME280;5762;43.256;26.960;2023-04-19T06:24:23;100243.07;;;10.33;100.00
11413;BME280;5762;43.256;26.960;2023-04-19T06:26:52;100254.68;;;10.36;100.00
11413;BME280;5762;43.256;26.960;2023-04-19T06:29:20;100250.37;;;10.32;100.00
11413;BME280;5762;43.256;26.960;2023-04-19T06:31:49;100249.98;;;10.44;100.00
11413;BME280;5762;43.256;26.960;2023-04-19T06:34:17;100255.09;;;10.48;100.00
11413;BME280;5762;43.256;26.960;2023-04-19T06:36:46;100252.34;;;10.53;100.00
11413;BME280;5762;43.256;26.960;2023-04-19T06:39:15;100245.88;;;10.49;100.00
11413;BME280;5762;43.256;26.960;2023-04-19T06:41:43;100249.16;;;10.46;100.00
11413;BME280;5762;43.256;26.960;2023-04-19T06:44:12;100239.70;;;10.44;100.00
11413;BME280;5762;43.256;26.960;2023-04-19T06:46:42;100237.72;;;10.54;100.00
11413;BME280;5762;43.256;26.960;2023-04-19T06:49:10;100235.53;;;10.56;100.00
11413;BME280;5762;43.256;26.960;2023-04-19T06:51:39;100228.62;;;10.43;100.00
11413;BME280;5762;43.256;26.960;2023-04-19T06:54:08;100225.84;;;10.50;100.00
11413;BME280;5762;43.256;26.960;2023-04-19T06:56:40;100223.75;;;10.42;100.00
11413;BME280;5762;43.256;26.960;2023-04-19T06:59:09;100220.70;;;10.51;100.00
11413;BME280;5762;43.256;26.960;2023-04-19T07:01:37;100216.11;;;10.49;100.00
11413;BME280;5762;43.256;26.960;2023-04-19T07:04:06;100208.16;;;10.34;100.00
11413;BME280;5762;43.256;26.960;2023-04-19T07:06:35;100211.58;;;10.42;100.00
11413;BME280;5762;43.256;26.960;2023-04-19T07:09:04;100215.16;;;10.37;100.00
11413;BME280;5762;43.256;26.960;2023-04-19T07:11:33;100218.03;;;10.46;100.00
11413;BME280;5762;43.256;26.960;2023-04-19T07:14:02;100219.03;;;10.55;100.00
11413;BME280;5762;43.256;26.960;2023-04-19T07:16:31;100216.40;;;10.48;100.00
11413;BME280;5762;43.256;26.960;2023-04-19T07:19:00;100223.64;;;10.55;100.00
11413;BME280;5762;43.256;26.960;2023-04-19T07:21:29;100233.06;;;10.60;100.00
11413;BME280;5762;43.256;26.960;2023-04-19T07:23:58;100235.16;;;10.68;100.00
11413;BME280;5762;43.256;26.960;2023-04-19T07:26:26;100240.59;;;10.65;100.00
11413;BME280;5762;43.256;26.960;2023-04-19T07:28:55;100240.95;;;10.56;100.00
11413;BME280;5762;43.256;26.960;2023-04-19T07:31:24;100248.72;;;10.65;100.00
11413;BME280;5762;43.256;26.960;2023-04-19T07:33:53;100234.75;;;10.53;100.00
11413;BME280;5762;43.256;26.960;2023-04-19T07:36:21;100240.87;;;10.64;100.00
11413;BME280;5762;43.256;26.960;2023-04-19T07:38:49;100238.98;;;10.64;100.00
11413;BME280;5762;43.256;26.960;2023-04-19T07:41:18;100239.81;;;10.62;100.00
11413;BME280;5762;43.256;26.960;2023-04-19T07:43:47;100232.19;;;10.67;100.00
11413;BME280;5762;43.256;26.960;2023-04-19T07:46:15;100235.39;;;10.71;100.00
11413;BME280;5762;43.256;26.960;2023-04-19T07:48:44;100233.13;;;10.79;100.00
11413;BME280;5762;43.256;26.960;2023-04-19T07:51:14;100224.17;;;10.81;100.00
11413;BME280;5762;43.256;26.960;2023-04-19T07:53:43;100222.80;;;10.83;100.00
11413;BME280;5762;43.256;26.960;2023-04-19T07:56:11;100217.95;;;10.80;100.00
11413;BME280;5762;43.256;26.960;2023-04-19T07:58:41;100220.11;;;10.81;100.00
11413;BME280;5762;43.256;26.960;2023-04-19T08:01:09;100213.28;;;10.86;100.00
11413;BME280;5762;43.256;26.960;2023-04-19T08:03:39;100207.92;;;10.81;100.00
11413;BME280;5762;43.256;26.960;2023-04-19T08:06:08;100203.52;;;10.87;100.00
11413;BME280;5762;43.256;26.960;2023-04-19T08:08:37;100207.27;;;10.91;100.00
11413;BME280;5762;43.256;26.960;2023-04-19T08:11:06;100205.05;;;10.96;100.00
11413;BME280;5762;43.256;26.960;2023-04-19T08:13:35;100200.73;;;10.95;100.00
11413;BME280;5762;43.256;26.960;2023-04-19T08:16:04;100195.28;;;10.97;100.00
11413;BME280;5762;43.256;26.960;2023-04-19T08:18:33;100188.84;;;10.93;100.00
11413;BME280;5762;43.256;26.960;2023-04-19T08:21:02;100184.69;;;11.01;100.00
11413;BME280;5762;43.256;26.960;2023-04-19T08:23:31;100175.95;;;11.06;100.00
11413;BME280;5762;43.256;26.960;2023-04-19T08:25:59;100166.50;;;11.04;100.00
11413;BME280;5762;43.256;26.960;2023-04-19T08:28:28;100164.22;;;11.11;100.00
11413;BME280;5762;43.256;26.960;2023-04-19T08:30:57;100151.95;;;11.16;100.00
11413;BME280;5762;43.256;26.960;2023-04-19T08:33:27;100145.31;;;11.27;100.00
11413;BME280;5762;43.256;26.960;2023-04-19T08:35:55;100136.53;;;11.35;100.00
11413;BME280;5762;43.256;26.960;2023-04-19T08:38:23;100133.53;;;11.37;100.00
11413;BME280;5762;43.256;26.960;2023-04-19T08:40:52;100114.19;;;11.25;100.00
11413;BME280;5762;43.256;26.960;2023-04-19T08:43:24;100118.22;;;11.27;100.00
11413;BME280;5762;43.256;26.960;2023-04-19T08:45:53;100119.98;;;11.37;100.00
11413;BME280;5762;43.256;26.960;2023-04-19T08:48:25;100111.08;;;11.34;100.00
11413;BME280;5762;43.256;26.960;2023-04-19T08:50:55;100113.05;;;11.28;100.00
11413;BME280;5762;43.256;26.960;2023-04-19T08:53:27;100106.09;;;11.22;100.00
11413;BME280;5762;43.256;26.960;2023-04-19T08:55:55;100112.95;;;11.36;100.00
11413;BME280;5762;43.256;26.960;2023-04-19T08:58:27;100105.77;;;11.26;100.00
11413;BME280;5762;43.256;26.960;2023-04-19T09:00:56;100099.46;;;11.12;100.00
11413;BME280;5762;43.256;26.960;2023-04-19T09:03:26;100103.17;;;11.37;100.00
11413;BME280;5762;43.256;26.960;2023-04-19T09:05:55;100095.04;;;11.37;100.00
11413;BME280;5762;43.256;26.960;2023-04-19T09:08:25;100096.87;;;11.42;100.00
11413;BME280;5762;43.256;26.960;2023-04-19T09:10:56;100100.23;;;11.50;100.00
11413;BME280;5762;43.256;26.960;2023-04-19T09:13:25;100086.17;;;11.32;100.00
11413;BME280;5762;43.256;26.960;2023-04-19T09:15:54;100080.21;;;11.32;100.00
11413;BME280;5762;43.256;26.960;2023-04-19T09:18:29;100089.66;;;11.35;100.00
11413;BME280;5762;43.256;26.960;2023-04-19T09:20:58;100097.71;;;11.40;100.00
11413;BME280;5762;43.256;26.960;2023-04-19T09:23:27;100105.03;;;11.39;100.00
11413;BME280;5762;43.256;26.960;2023-04-19T09:26:00;100116.14;;;11.57;100.00
11413;BME280;5762;43.256;26.960;2023-04-19T09:28:29;100122.14;;;11.54;100.00
11413;BME280;5762;43.256;26.960;2023-04-19T09:30:57;100108.08;;;11.52;100.00
11413;BME280;5762;43.256;26.960;2023-04-19T09:33:34;100104.37;;;11.64;100.00
11413;BME280;5762;43.256;26.960;2023-04-19T09:36:04;100107.22;;;11.72;100.00
11413;BME280;5762;43.256;26.960;2023-04-19T09:38:46;100093.05;;;11.59;100.00
11413;BME280;5762;43.256;26.960;2023-04-19T09:41:15;100094.46;;;11.73;100.00
11413;BME280;5762;43.256;26.960;2023-04-19T09:43:44;100098.27;;;11.56;100.00
11413;BME280;5762;43.256;26.960;2023-04-19T09:46:29;100095.04;;;11.37;100.00
11413;BME280;5762;43.256;26.960;2023-04-19T09:49:15;100109.39;;;11.38;100.00
11413;BME280;5762;43.256;26.960;2023-04-19T09:51:47;100128.70;;;11.50;100.00
11413;BME280;5762;43.256;26.960;2023-04-19T09:54:16;100146.83;;;11.52;100.00
11413;BME280;5762;43.256;26.960;2023-04-19T09:56:46;100155.77;;;11.53;100.00
11413;BME280;5762;43.256;26.960;2023-04-19T09:59:15;100165.59;;;11.67;100.00
11413;BME280;5762;43.256;26.960;2023-04-19T10:01:45;100164.30;;;11.81;100.00
11413;BME280;5762;43.256;26.960;2023-04-19T10:04:13;100154.78;;;11.65;100.00
11413;BME280;5762;43.256;26.960;2023-04-19T10:06:50;100152.11;;;11.62;100.00
11413;BME280;5762;43.256;26.960;2023-04-19T10:09:18;100165.11;;;11.82;100.00
11413;BME280;5762;43.256;26.960;2023-04-19T10:11:47;100167.45;;;11.88;100.00
11413;BME280;5762;43.256;26.960;2023-04-19T10:14:18;100168.84;;;11.86;100.00
11413;BME280;5762;43.256;26.960;2023-04-19T10:16:46;100160.75;;;11.99;100.00
11413;BME280;5762;43.256;26.960;2023-04-19T10:19:16;100147.06;;;11.91;100.00
11413;BME280;5762;43.256;26.960;2023-04-19T10:21:46;100138.75;;;11.85;100.00
11413;BME280;5762;43.256;26.960;2023-04-19T10:24:15;100116.17;;;11.89;100.00
11413;BME280;5762;43.256;26.960;2023-04-19T10:32:17;100072.05;;;12.00;100.00
11413;BME280;5762;43.256;26.960;2023-04-19T10:34:46;100059.03;;;11.99;100.00
11413;BME280;5762;43.256;26.960;2023-04-19T10:37:15;100068.94;;;12.06;100.00
11413;BME280;5762;43.256;26.960;2023-04-19T10:39:44;100066.06;;;12.14;100.00
11413;BME280;5762;43.256;26.960;2023-04-19T10:42:13;100062.80;;;12.15;100.00
11413;BME280;5762;43.256;26.960;2023-04-19T10:44:41;100064.91;;;12.18;100.00
11413;BME280;5762;43.256;26.960;2023-04-19T10:47:09;100052.91;;;12.21;100.00
11413;BME280;5762;43.256;26.960;2023-04-19T10:49:44;100041.91;;;12.43;100.00
11413;BME280;5762;43.256;26.960;2023-04-19T10:52:25;100027.48;;;12.45;100.00
11413;BME280;5762;43.256;26.960;2023-04-19T10:54:55;100016.44;;;12.52;100.00
11413;BME280;5762;43.256;26.960;2023-04-19T10:57:24;99999.97;;;12.73;100.00
11413;BME280;5762;43.256;26.960;2023-04-19T11:02:29;99957.37;;;12.83;100.00
11413;BME280;5762;43.256;26.960;2023-04-19T11:04:58;99933.98;;;12.95;100.00
11413;BME280;5762;43.256;26.960;2023-04-19T11:07:27;99906.75;;;12.98;100.00
11413;BME280;5762;43.256;26.960;2023-04-19T11:09:59;99893.41;;;13.10;100.00
11413;BME280;5762;43.256;26.960;2023-04-19T11:12:26;99882.92;;;13.06;100.00
11413;BME280;5762;43.256;26.960;2023-04-19T11:14:56;99868.48;;;12.97;100.00
11413;BME280;5762;43.256;26.960;2023-04-19T11:17:27;99855.13;;;13.09;100.00
11413;BME280;5762;43.256;26.960;2023-04-19T11:20:00;99839.94;;;13.08;100.00
11413;BME280;5762;43.256;26.960;2023-04-19T11:22:31;99843.77;;;13.07;100.00
11413;BME280;5762;43.256;26.960;2023-04-19T11:25:07;99845.80;;;13.13;100.00
11413;BME280;5762;43.256;26.960;2023-04-19T11:27:36;99841.03;;;13.18;100.00
11413;BME280;5762;43.256;26.960;2023-04-19T11:30:06;99827.95;;;13.09;100.00
11413;BME280;5762;43.256;26.960;2023-04-19T11:32:34;99824.86;;;13.13;100.00
11413;BME280;5762;43.256;26.960;2023-04-19T11:35:08;99830.27;;;13.16;100.00
11413;BME280;5762;43.256;26.960;2023-04-19T11:37:33;99833.22;;;13.17;100.00
11413;BME280;5762;43.256;26.960;2023-04-19T11:40:02;99823.77;;;13.03;100.00
11413;BME280;5762;43.256;26.960;2023-04-19T11:42:31;99827.48;;;12.96;100.00
11413;BME280;5762;43.256;26.960;2023-04-19T11:45:00;99840.87;;;13.03;100.00
11413;BME280;5762;43.256;26.960;2023-04-19T11:47:29;99838.90;;;12.95;100.00
11413;BME280;5762;43.256;26.960;2023-04-19T11:50:29;99848.70;;;13.05;100.00
11413;BME280;5762;43.256;26.960;2023-04-19T11:52:28;99853.16;;;13.01;100.00
11413;BME280;5762;43.256;26.960;2023-04-19T11:54:57;99858.84;;;13.02;100.00
11413;BME280;5762;43.256;26.960;2023-04-19T11:57:27;99858.80;;;13.16;100.00
11413;BME280;5762;43.256;26.960;2023-04-19T12:00:05;99855.72;;;13.28;100.00
11413;BME280;5762;43.256;26.960;2023-04-19T12:02:38;99842.09;;;13.39;100.00
11413;BME280;5762;43.256;26.960;2023-04-19T12:05:08;99829.77;;;13.62;100.00
11413;BME280;5762;43.256;26.960;2023-04-19T12:07:55;99807.30;;;13.67;100.00
11413;BME280;5762;43.256;26.960;2023-04-19T12:10:10;99793.09;;;13.79;100.00
11413;BME280;5762;43.256;26.960;2023-04-19T12:12:39;99773.25;;;13.79;100.00
11413;BME280;5762;43.256;26.960;2023-04-19T12:15:08;99758.61;;;13.77;100.00
11413;BME280;5762;43.256;26.960;2023-04-19T12:17:54;99767.98;;;13.82;100.00
11413;BME280;5762;43.256;26.960;2023-04-19T12:20:07;99761.66;;;13.84;100.00
11413;BME280;5762;43.256;26.960;2023-04-19T12:22:36;99759.98;;;13.86;100.00
11413;BME280;5762;43.256;26.960;2023-04-19T12:25:05;99748.99;;;13.88;100.00
11413;BME280;5762;43.256;26.960;2023-04-19T12:27:34;99741.23;;;14.01;100.00
11413;BME280;5762;43.256;26.960;2023-04-19T12:30:03;99728.43;;;13.93;100.00
11413;BME280;5762;43.256;26.960;2023-04-19T12:32:33;99728.03;;;14.06;100.00
11413;BME280;5762;43.256;26.960;2023-04-19T12:35:01;99714.59;;;13.92;100.00
11413;BME280;5762;43.256;26.960;2023-04-19T12:37:30;99717.06;;;13.91;100.00
11413;BME280;5762;43.256;26.960;2023-04-19T12:39:59;99727.07;;;13.93;100.00
11413;BME280;5762;43.256;26.960;2023-04-19T12:42:28;99722.59;;;13.97;100.00
11413;BME280;5762;43.256;26.960;2023-04-19T12:44:57;99722.35;;;13.96;100.00
11413;BME280;5762;43.256;26.960;2023-04-19T12:47:25;99707.38;;;13.88;100.00
11413;BME280;5762;43.256;26.960;2023-04-19T12:49:53;99713.02;;;13.83;100.00
11413;BME280;5762;43.256;26.960;2023-04-19T12:52:22;99720.53;;;13.86;100.00
11413;BME280;5762;43.256;26.960;2023-04-19T12:54:51;99732.04;;;14.08;100.00
11413;BME280;5762;43.256;26.960;2023-04-19T12:57:20;99723.67;;;14.31;100.00
11413;BME280;5762;43.256;26.960;2023-04-19T12:59:49;99709.41;;;14.34;100.00